Time;durP1;ratioP1;P1;durP2;ratioP2;P2;SDS_P1;SDS_P2;PMS_P1;PMS_P2;Temp;Humidity;BMP_temperature;BMP_pressure;BME280_temperature;BME280_humidity;BME280_pressure;Samples;Min_cycle;Max_cycle;Signal;HPM_P1;HPM_P2
2022/10/14 00:01:26;;;;;;;26.67;17.77;;;11.80;99.90;;;;;;5013210;28;20281;-70
2022/10/14 00:03:53;;;;;;;27.30;17.67;;;11.90;99.90;;;;;;5013359;28;20216;-70
2022/10/14 00:06:28;;;;;;;24.93;17.53;;;11.80;99.90;;;;;;5018181;28;20180;-70
2022/10/14 00:08:54;;;;;;;26.27;16.57;;;11.70;99.90;;;;;;5009116;28;20271;-70
2022/10/14 00:11:23;;;;;;;24.43;16.23;;;11.70;99.90;;;;;;5029482;28;20624;-71
2022/10/14 00:13:49;;;;;;;23.13;16.93;;;11.70;99.90;;;;;;5013291;28;20637;-71
2022/10/14 00:16:20;;;;;;;26.73;17.67;;;11.60;99.90;;;;;;5013036;28;20212;-69
2022/10/14 00:18:46;;;;;;;24.97;16.27;;;11.50;99.90;;;;;;5011709;28;20232;-70
2022/10/14 00:21:12;;;;;;;26.70;17.00;;;11.60;99.90;;;;;;5015113;28;20216;-68
2022/10/14 00:23:38;;;;;;;27.10;18.03;;;11.50;99.90;;;;;;5015928;28;20173;-70
2022/10/14 00:26:04;;;;;;;28.00;18.17;;;11.40;99.90;;;;;;5012849;28;20232;-69
2022/10/14 00:28:30;;;;;;;25.67;17.47;;;11.40;99.90;;;;;;5012958;28;20332;-70
2022/10/14 00:30:57;;;;;;;27.73;17.30;;;11.40;99.90;;;;;;5012497;28;20220;-69
2022/10/14 00:33:23;;;;;;;24.67;17.10;;;11.40;99.90;;;;;;5012876;28;20678;-70
2022/10/14 00:35:57;;;;;;;27.33;18.27;;;11.40;99.90;;;;;;5013347;28;20659;-69
2022/10/14 00:38:23;;;;;;;28.80;17.57;;;11.50;99.90;;;;;;5012653;28;20355;-69
2022/10/14 00:40:49;;;;;;;25.90;17.17;;;11.40;99.90;;;;;;5012507;28;20711;-70
2022/10/14 00:43:15;;;;;;;27.00;17.27;;;11.30;99.90;;;;;;5012900;28;20741;-71
2022/10/14 00:45:41;;;;;;;25.63;16.30;;;11.30;99.90;;;;;;5011037;28;20217;-72
2022/10/14 00:48:07;;;;;;;25.13;17.00;;;11.40;99.90;;;;;;5012978;28;20228;-69
2022/10/14 00:50:34;;;;;;;26.50;18.47;;;11.40;99.90;;;;;;5012062;28;20208;-71
2022/10/14 00:53:00;;;;;;;27.20;16.63;;;11.50;99.90;;;;;;5012470;28;20257;-69
2022/10/14 00:55:26;;;;;;;27.13;17.30;;;11.40;99.90;;;;;;5012396;28;20241;-71
2022/10/14 00:57:52;;;;;;;23.63;17.10;;;11.50;99.90;;;;;;5011322;28;20986;-71
2022/10/14 01:00:19;;;;;;;26.07;17.67;;;11.50;99.90;;;;;;5009399;28;20235;-71
2022/10/14 01:02:46;;;;;;;26.37;16.40;;;11.50;99.90;;;;;;5010695;28;20319;-71
2022/10/14 01:05:16;;;;;;;22.40;15.43;;;11.50;99.90;;;;;;5011115;28;20307;-71
2022/10/14 01:08:06;;;;;;;24.30;15.73;;;11.50;99.90;;;;;;5012133;28;20292;-71
2022/10/14 01:10:54;;;;;;;23.00;16.50;;;11.50;99.90;;;;;;5008819;28;20217;-71
2022/10/14 01:13:34;;;;;;;23.67;15.70;;;11.50;99.90;;;;;;5015937;28;20229;-70
2022/10/14 01:16:05;;;;;;;22.37;15.73;;;11.40;99.90;;;;;;5011655;28;20699;-69
2022/10/14 01:18:45;;;;;;;22.53;15.20;;;11.40;99.90;;;;;;5008657;28;20213;-71
2022/10/14 01:21:14;;;;;;;22.73;16.10;;;11.40;99.90;;;;;;5011102;28;20201;-72
2022/10/14 01:24:00;;;;;;;24.43;16.53;;;11.40;99.90;;;;;;5012373;28;20182;-71
2022/10/14 01:26:49;;;;;;;26.57;15.90;;;11.40;99.90;;;;;;5012534;28;20793;-71
2022/10/14 01:29:45;;;;;;;30.47;17.80;;;11.40;99.90;;;;;;5011063;28;20664;-72
2022/10/14 01:32:18;;;;;;;25.70;17.30;;;11.30;99.90;;;;;;5010968;28;20263;-71
2022/10/14 01:34:53;;;;;;;26.53;15.90;;;11.30;99.90;;;;;;5012006;28;20721;-71
2022/10/14 01:37:26;;;;;;;22.47;15.50;;;11.30;99.90;;;;;;5011923;28;20307;-70
2022/10/14 01:39:59;;;;;;;25.30;16.87;;;11.30;99.90;;;;;;5011370;28;20212;-70
2022/10/14 01:42:29;;;;;;;29.00;17.70;;;11.30;99.90;;;;;;5012975;28;20188;-72
2022/10/14 01:45:04;;;;;;;23.80;16.60;;;11.20;99.90;;;;;;5012394;28;20185;-71
2022/10/14 01:47:33;;;;;;;23.63;17.20;;;11.30;99.90;;;;;;5009774;28;20231;-71
2022/10/14 01:50:05;;;;;;;25.07;15.53;;;11.20;99.90;;;;;;5010940;28;20217;-69
2022/10/14 01:52:37;;;;;;;25.27;16.77;;;11.10;99.90;;;;;;5007310;28;20209;-71
2022/10/14 01:55:06;;;;;;;25.60;17.07;;;11.20;99.90;;;;;;5014062;28;20208;-70
2022/10/14 01:57:35;;;;;;;20.93;15.60;;;11.20;99.90;;;;;;5013913;28;20339;-71
2022/10/14 02:00:03;;;;;;;22.47;16.83;;;11.20;99.90;;;;;;5011634;28;20193;-70
2022/10/14 02:02:28;;;;;;;23.30;15.60;;;11.20;99.90;;;;;;5011036;28;20375;-71
2022/10/14 02:04:54;;;;;;;26.83;16.40;;;11.10;99.90;;;;;;5010954;28;20743;-71
2022/10/14 02:07:38;;;;;;;24.27;16.40;;;11.10;99.90;;;;;;5011083;28;20209;-71
2022/10/14 02:10:12;;;;;;;23.00;15.77;;;11.10;99.90;;;;;;5003641;28;20221;-71
2022/10/14 02:13:13;;;;;;;21.47;15.63;;;11.00;99.90;;;;;;5009692;28;20882;-71
2022/10/14 02:15:59;;;;;;;23.80;16.33;;;11.00;99.90;;;;;;5000430;28;20779;-71
2022/10/14 02:18:57;;;;;;;26.03;17.40;;;11.00;99.90;;;;;;5009951;28;20223;-70
2022/10/14 02:21:30;;;;;;;25.60;16.13;;;11.00;99.90;;;;;;5007061;28;20207;-70
2022/10/14 02:24:08;;;;;;;26.50;16.40;;;11.00;99.90;;;;;;5013906;28;20698;-71
2022/10/14 02:26:35;;;;;;;24.20;15.27;;;11.00;99.90;;;;;;5007398;28;20204;-71
2022/10/14 02:29:03;;;;;;;21.33;15.53;;;11.00;99.90;;;;;;5014135;28;20217;-69
2022/10/14 02:31:31;;;;;;;21.97;15.50;;;10.90;99.90;;;;;;5011214;28;20212;-70
2022/10/14 02:34:00;;;;;;;25.80;16.87;;;11.00;99.90;;;;;;5000837;28;20205;-71
2022/10/14 02:36:27;;;;;;;22.77;15.77;;;11.00;99.90;;;;;;5006750;28;20197;-72
2022/10/14 02:38:57;;;;;;;28.50;15.87;;;10.90;99.90;;;;;;5010435;28;20712;-70
2022/10/14 02:41:28;;;;;;;27.67;16.17;;;10.90;99.90;;;;;;5009859;28;20197;-71
2022/10/14 02:43:53;;;;;;;24.90;16.40;;;10.80;99.90;;;;;;5010131;28;20263;-70
2022/10/14 02:46:20;;;;;;;25.80;16.10;;;10.90;99.90;;;;;;5010370;28;20205;-71
2022/10/14 02:48:46;;;;;;;22.97;15.80;;;10.90;99.90;;;;;;5016825;28;20225;-72
2022/10/14 02:51:11;;;;;;;20.00;14.97;;;10.90;99.90;;;;;;5027712;28;20196;-72
2022/10/14 02:53:37;;;;;;;22.87;16.03;;;11.00;99.90;;;;;;5023177;28;20612;-72
2022/10/14 02:56:02;;;;;;;24.23;15.73;;;11.00;99.90;;;;;;5011753;28;20224;-72
2022/10/14 02:58:28;;;;;;;23.73;15.27;;;11.10;99.90;;;;;;5025120;28;20213;-72
2022/10/14 03:00:54;;;;;;;22.13;15.63;;;11.10;99.90;;;;;;5009483;28;20223;-71
2022/10/14 03:03:20;;;;;;;22.33;15.60;;;11.10;99.90;;;;;;5010059;28;20268;-71
2022/10/14 03:05:46;;;;;;;23.00;15.00;;;11.20;99.90;;;;;;5010222;28;20173;-72
2022/10/14 03:08:11;;;;;;;22.07;13.97;;;11.20;99.90;;;;;;5010066;28;20227;-70
2022/10/14 03:10:37;;;;;;;22.50;12.97;;;11.10;99.90;;;;;;5013857;28;20207;-70
2022/10/14 03:13:02;;;;;;;21.80;15.67;;;11.20;99.90;;;;;;5014060;28;20209;-70
2022/10/14 03:15:28;;;;;;;26.27;14.60;;;11.20;99.90;;;;;;5013973;28;20208;-71
2022/10/14 03:17:54;;;;;;;23.77;14.17;;;11.20;99.90;;;;;;5013972;28;20596;-71
2022/10/14 03:20:19;;;;;;;22.23;13.43;;;11.20;99.90;;;;;;5013731;28;20286;-71
2022/10/14 03:22:45;;;;;;;23.30;14.03;;;11.20;99.90;;;;;;5014182;28;20592;-71
2022/10/14 03:25:10;;;;;;;25.33;13.70;;;11.30;99.90;;;;;;5014214;28;20710;-71
2022/10/14 03:27:36;;;;;;;23.00;14.37;;;11.20;99.90;;;;;;5012941;28;20209;-71
2022/10/14 03:30:02;;;;;;;22.93;13.90;;;11.20;99.90;;;;;;5013937;28;20180;-70
2022/10/14 03:32:27;;;;;;;22.40;14.60;;;11.30;99.90;;;;;;5014022;28;20212;-71
2022/10/14 03:34:53;;;;;;;21.03;14.70;;;11.20;99.90;;;;;;5014165;28;20339;-71
2022/10/14 03:37:18;;;;;;;19.30;13.37;;;11.20;99.90;;;;;;5013732;28;20222;-71
2022/10/14 03:39:44;;;;;;;22.93;14.30;;;11.30;99.90;;;;;;5028324;28;20204;-70
2022/10/14 03:42:09;;;;;;;19.37;14.57;;;11.30;99.90;;;;;;5013822;28;20189;-70
2022/10/14 03:44:35;;;;;;;25.00;14.30;;;11.30;99.90;;;;;;5014057;28;20193;-71
2022/10/14 03:47:01;;;;;;;20.20;13.93;;;11.20;99.90;;;;;;5021170;28;20236;-70
2022/10/14 03:49:26;;;;;;;22.63;15.07;;;11.10;99.90;;;;;;5028180;28;20719;-71
2022/10/14 03:51:52;;;;;;;23.20;15.07;;;11.00;99.90;;;;;;5013615;28;20235;-71
2022/10/14 03:54:17;;;;;;;21.77;14.23;;;11.10;99.90;;;;;;5013623;28;20650;-70
2022/10/14 03:56:43;;;;;;;26.97;15.90;;;11.10;99.90;;;;;;5015258;28;20200;-72
2022/10/14 03:59:08;;;;;;;21.53;13.73;;;11.10;99.90;;;;;;5015980;28;20219;-71
2022/10/14 04:01:34;;;;;;;22.33;15.17;;;11.00;99.90;;;;;;5013551;28;20588;-70
2022/10/14 04:04:00;;;;;;;24.50;14.70;;;10.90;99.90;;;;;;5014093;28;20211;-69
2022/10/14 04:06:25;;;;;;;23.27;15.07;;;10.90;99.90;;;;;;5013617;28;20276;-71
2022/10/14 04:08:51;;;;;;;25.53;14.70;;;11.00;99.90;;;;;;5012272;28;20228;-70
2022/10/14 04:11:16;;;;;;;21.77;15.27;;;10.90;99.90;;;;;;5012739;28;20204;-71
2022/10/14 04:13:44;;;;;;;23.43;16.07;;;10.90;99.90;;;;;;5013149;28;20719;-74
2022/10/14 04:16:10;;;;;;;21.57;14.93;;;10.80;99.90;;;;;;5012789;28;20256;-71
2022/10/14 04:18:37;;;;;;;23.90;15.20;;;10.80;99.90;;;;;;5012959;28;20243;-70
2022/10/14 04:21:05;;;;;;;26.10;16.47;;;10.70;99.90;;;;;;5012243;28;20235;-71
2022/10/14 04:23:31;;;;;;;21.93;15.63;;;10.60;99.90;;;;;;5012933;28;20288;-71
2022/10/14 04:25:57;;;;;;;22.40;16.00;;;10.60;99.90;;;;;;5012747;28;20287;-71
2022/10/14 04:28:22;;;;;;;22.33;15.50;;;10.60;99.90;;;;;;5011180;28;20219;-71
2022/10/14 04:30:48;;;;;;;24.40;15.70;;;10.70;99.90;;;;;;5012797;28;20209;-70
2022/10/14 04:33:14;;;;;;;23.67;15.20;;;10.70;99.90;;;;;;5012426;28;20260;-70
2022/10/14 04:35:39;;;;;;;21.13;14.40;;;10.70;99.90;;;;;;5013730;28;20213;-71
2022/10/14 04:38:05;;;;;;;21.10;14.93;;;10.70;99.90;;;;;;5012342;28;20228;-70
2022/10/14 04:40:30;;;;;;;24.97;16.07;;;10.60;99.90;;;;;;5012373;28;20212;-71
2022/10/14 04:42:57;;;;;;;23.30;15.37;;;10.60;99.90;;;;;;5016016;28;20213;-70
2022/10/14 04:45:24;;;;;;;24.93;14.93;;;10.60;99.90;;;;;;5013609;28;20185;-70
2022/10/14 04:47:49;;;;;;;25.20;15.93;;;10.70;99.90;;;;;;5019614;28;20220;-71
2022/10/14 04:50:16;;;;;;;21.20;15.23;;;10.70;99.90;;;;;;5018795;28;20567;-71
2022/10/14 04:52:41;;;;;;;23.77;15.50;;;10.70;99.90;;;;;;5015192;28;20213;-71
2022/10/14 04:55:07;;;;;;;24.90;14.73;;;10.70;99.90;;;;;;5018533;28;20212;-70
2022/10/14 04:57:34;;;;;;;24.93;15.17;;;10.70;99.90;;;;;;5023527;28;20224;-70
2022/10/14 04:59:59;;;;;;;25.43;14.77;;;10.80;99.90;;;;;;5013772;28;20213;-69
2022/10/14 05:02:25;;;;;;;26.43;15.43;;;10.90;99.90;;;;;;5024829;28;20219;-71
2022/10/14 05:04:50;;;;;;;22.90;15.10;;;10.90;99.90;;;;;;5018987;28;20224;-73
2022/10/14 05:07:16;;;;;;;22.40;14.80;;;10.90;99.90;;;;;;5018827;28;20215;-70
2022/10/14 05:09:41;;;;;;;25.60;15.30;;;10.90;99.90;;;;;;5014160;28;20217;-70
2022/10/14 05:12:07;;;;;;;24.77;14.73;;;10.90;99.90;;;;;;5022891;28;20181;-71
2022/10/14 05:14:33;;;;;;;26.33;15.73;;;10.90;99.90;;;;;;5034731;28;20185;-72
2022/10/14 05:16:59;;;;;;;23.03;15.60;;;10.90;99.90;;;;;;5020221;28;20213;-69
2022/10/14 05:19:24;;;;;;;21.63;14.77;;;10.90;99.90;;;;;;5020461;28;20220;-71
2022/10/14 05:21:50;;;;;;;26.97;16.33;;;11.00;99.90;;;;;;5018771;28;20753;-70
2022/10/14 05:24:15;;;;;;;22.37;14.80;;;10.90;99.90;;;;;;5019254;28;20172;-71
2022/10/14 05:26:41;;;;;;;26.20;15.70;;;10.90;99.90;;;;;;5013457;28;20247;-71
2022/10/14 05:29:09;;;;;;;28.33;15.83;;;10.90;99.90;;;;;;5014035;28;20220;-71
2022/10/14 05:31:35;;;;;;;25.43;15.60;;;11.00;99.90;;;;;;5017887;28;20641;-71
2022/10/14 05:34:01;;;;;;;22.63;14.60;;;11.10;99.90;;;;;;5019450;28;20219;-72
2022/10/14 05:36:26;;;;;;;21.27;13.77;;;11.10;99.90;;;;;;5012227;28;20707;-71
2022/10/14 05:38:55;;;;;;;25.40;15.47;;;11.10;99.90;;;;;;5017019;28;20217;-72
2022/10/14 05:41:20;;;;;;;21.97;15.27;;;11.20;99.90;;;;;;5015601;28;20266;-71
2022/10/14 05:43:46;;;;;;;24.40;15.37;;;11.20;99.90;;;;;;5012377;28;20220;-72
2022/10/14 05:46:11;;;;;;;23.50;14.57;;;11.20;99.90;;;;;;5013085;28;20220;-70
2022/10/14 05:48:37;;;;;;;25.60;14.70;;;11.30;99.90;;;;;;5016628;28;20225;-71
2022/10/14 05:51:02;;;;;;;26.23;15.70;;;11.30;99.90;;;;;;5015956;28;20708;-69
2022/10/14 05:53:28;;;;;;;20.63;14.53;;;11.30;99.90;;;;;;5012495;28;20255;-70
2022/10/14 05:56:08;;;;;;;20.83;15.13;;;11.30;99.90;;;;;;5057768;22;20258;-70
2022/10/14 05:58:34;;;;;;;23.63;14.97;;;11.40;99.90;;;;;;5046148;28;20228;-71
2022/10/14 06:01:01;;;;;;;26.77;14.30;;;11.90;99.90;;;;;;5035595;28;20212;-72
2022/10/14 06:03:26;;;;;;;21.67;14.33;;;12.60;99.90;;;;;;5039846;28;21814;-72
2022/10/14 06:05:52;;;;;;;22.90;14.47;;;12.40;99.90;;;;;;5041893;28;20204;-72
2022/10/14 06:08:18;;;;;;;25.00;15.00;;;12.20;99.90;;;;;;5039991;28;20705;-72
2022/10/14 06:10:43;;;;;;;20.10;13.80;;;12.00;99.90;;;;;;5030900;28;20315;-71
2022/10/14 06:13:09;;;;;;;23.17;14.50;;;12.00;99.90;;;;;;5044323;28;21052;-71
2022/10/14 06:15:35;;;;;;;25.53;14.50;;;11.90;99.90;;;;;;5036699;28;20246;-71
2022/10/14 06:18:00;;;;;;;24.90;14.67;;;11.80;99.90;;;;;;5039068;28;20212;-71
2022/10/14 06:20:26;;;;;;;21.17;14.27;;;11.80;99.90;;;;;;5038506;28;20228;-73
2022/10/14 06:22:52;;;;;;;21.63;14.80;;;11.80;99.90;;;;;;5035396;28;20319;-72
2022/10/14 06:25:17;;;;;;;28.43;14.90;;;11.90;99.90;;;;;;5051358;28;20784;-72
2022/10/14 06:27:43;;;;;;;26.23;15.80;;;12.00;99.90;;;;;;5031472;28;20216;-73
2022/10/14 06:30:09;;;;;;;24.83;15.20;;;11.90;99.90;;;;;;5037555;28;20283;-72
2022/10/14 06:32:35;;;;;;;23.70;15.07;;;11.90;99.90;;;;;;5035943;28;20239;-72
2022/10/14 06:35:00;;;;;;;24.27;14.63;;;11.80;99.90;;;;;;5034112;28;20212;-70
2022/10/14 06:37:26;;;;;;;27.07;15.33;;;11.80;99.90;;;;;;5036959;28;20269;-70
2022/10/14 06:39:51;;;;;;;23.87;14.97;;;11.80;99.90;;;;;;5035289;28;20233;-71
2022/10/14 06:42:17;;;;;;;24.03;15.33;;;11.80;99.90;;;;;;5038557;28;20673;-72
2022/10/14 06:44:42;;;;;;;24.03;15.90;;;11.80;99.90;;;;;;5031743;28;20223;-70
2022/10/14 06:47:08;;;;;;;21.80;14.43;;;11.80;99.90;;;;;;5034587;28;20235;-71
2022/10/14 06:49:34;;;;;;;22.97;14.77;;;11.80;99.90;;;;;;5038286;28;20205;-70
2022/10/14 06:51:59;;;;;;;23.63;15.13;;;11.80;99.90;;;;;;5035480;28;20880;-71
2022/10/14 06:54:25;;;;;;;26.20;15.70;;;11.80;99.90;;;;;;5033830;28;20213;-70
2022/10/14 06:56:50;;;;;;;20.87;14.00;;;12.00;99.90;;;;;;5042742;28;20227;-71
2022/10/14 06:59:16;;;;;;;23.40;14.83;;;12.20;99.90;;;;;;5039559;28;20261;-70
2022/10/14 07:01:41;;;;;;;22.47;15.13;;;12.30;99.90;;;;;;5032374;28;20897;-72
2022/10/14 07:04:07;;;;;;;22.93;15.17;;;12.30;99.90;;;;;;5042061;28;20215;-72
2022/10/14 07:06:33;;;;;;;29.33;15.33;;;12.30;99.90;;;;;;5042114;28;20272;-71
2022/10/14 07:08:58;;;;;;;24.63;15.27;;;12.40;99.90;;;;;;5035127;28;20682;-72
2022/10/14 07:11:24;;;;;;;25.50;15.77;;;12.50;99.90;;;;;;5029948;28;20217;-72
2022/10/14 07:13:49;;;;;;;23.57;15.40;;;12.60;99.90;;;;;;5042792;28;20304;-72
2022/10/14 07:16:15;;;;;;;24.63;15.13;;;12.70;99.90;;;;;;5040317;28;20629;-71
2022/10/14 07:18:40;;;;;;;23.70;14.57;;;12.70;99.90;;;;;;5040846;28;20200;-71
2022/10/14 07:21:06;;;;;;;25.60;14.63;;;12.70;99.90;;;;;;5035358;28;20185;-71
2022/10/14 07:23:32;;;;;;;26.57;15.13;;;12.80;99.90;;;;;;5042964;28;20208;-73
2022/10/14 07:25:59;;;;;;;24.10;15.63;;;12.80;99.90;;;;;;5039285;28;20271;-72
2022/10/14 07:28:24;;;;;;;23.67;14.50;;;12.50;99.90;;;;;;5037266;28;20268;-71
2022/10/14 07:31:23;;;;;;;23.60;14.67;;;12.60;99.90;;;;;;5040826;28;20215;-71
2022/10/14 07:33:48;;;;;;;22.80;14.43;;;12.70;99.90;;;;;;4996075;28;20216;-72
2022/10/14 07:36:16;;;;;;;23.97;14.27;;;12.80;99.90;;;;;;5031536;28;20631;-72
2022/10/14 07:38:42;;;;;;;27.83;15.37;;;12.90;99.90;;;;;;5041387;28;20226;-71
2022/10/14 07:41:18;;;;;;;22.43;15.77;;;12.80;99.90;;;;;;5041325;28;20213;-71
2022/10/14 07:43:45;;;;;;;20.93;14.60;;;12.70;99.90;;;;;;5035381;28;20259;-72
2022/10/14 07:46:11;;;;;;;23.97;15.80;;;12.80;99.90;;;;;;5023672;28;20216;-70
2022/10/14 07:48:38;;;;;;;29.40;17.27;;;12.90;99.90;;;;;;5034963;28;20216;-71
2022/10/14 07:51:05;;;;;;;23.73;15.17;;;13.10;99.90;;;;;;5032480;28;20181;-69
2022/10/14 07:53:30;;;;;;;24.53;15.23;;;13.10;99.90;;;;;;5029044;28;20263;-69
2022/10/14 07:55:58;;;;;;;24.80;15.70;;;13.10;99.90;;;;;;5036151;28;20220;-71
2022/10/14 07:58:29;;;;;;;23.50;15.50;;;13.40;99.90;;;;;;5040731;28;20689;-70
2022/10/14 08:00:56;;;;;;;29.50;15.10;;;13.50;99.90;;;;;;5032088;28;20208;-74
2022/10/14 08:03:23;;;;;;;26.48;14.65;;;13.70;99.90;;;;;;5041533;28;20207;-70
2022/10/14 08:05:49;;;;;;;21.50;14.45;;;13.80;99.90;;;;;;5042497;28;20215;-71
2022/10/14 08:08:17;;;;;;;29.60;15.40;;;13.80;99.90;;;;;;5037783;28;20582;-70
2022/10/14 08:10:43;;;;;;;22.88;13.85;;;13.90;99.90;;;;;;5028393;28;20204;-71
2022/10/14 08:13:09;;;;;;;25.15;13.95;;;14.10;99.90;;;;;;5040323;28;20205;-70
2022/10/14 08:15:39;;;;;;;31.88;14.90;;;14.30;99.90;;;;;;5037511;28;20702;-71
2022/10/14 08:18:05;;;;;;;22.55;14.30;;;14.40;99.90;;;;;;5030772;28;20204;-71
2022/10/14 08:20:32;;;;;;;24.85;15.43;;;14.50;99.90;;;;;;5031510;28;20207;-71
2022/10/14 08:22:58;;;;;;;28.13;15.13;;;15.00;99.90;;;;;;5038062;28;20220;-70
2022/10/14 08:25:23;;;;;;;22.50;15.00;;;15.70;99.90;;;;;;5033446;28;20630;-70
2022/10/14 08:27:50;;;;;;;21.75;13.98;;;16.10;99.90;;;;;;5025249;28;20223;-70
2022/10/14 08:30:16;;;;;;;25.95;15.05;;;16.20;99.90;;;;;;5033120;28;20184;-70
2022/10/14 08:32:42;;;;;;;25.63;14.45;;;16.50;99.90;;;;;;5034082;28;20180;-70
2022/10/14 08:35:08;;;;;;;29.55;14.82;;;16.90;99.90;;;;;;5028433;28;20664;-70
2022/10/14 08:37:35;;;;;;;24.63;14.80;;;17.00;99.90;;;;;;5029579;28;20310;-70
2022/10/14 08:40:00;;;;;;;23.63;14.93;;;17.20;99.90;;;;;;5036582;28;20211;-69
2022/10/14 08:42:48;;;;;;;23.15;14.63;;;17.60;99.90;;;;;;5035466;28;20266;-70
2022/10/14 08:45:18;;;;;;;25.38;13.93;;;18.00;99.90;;;;;;5026694;28;20295;-70
2022/10/14 08:47:45;;;;;;;20.73;13.88;;;18.10;99.90;;;;;;5035432;28;20184;-71
2022/10/14 08:50:36;;;;;;;19.77;13.07;;;17.60;99.90;;;;;;5034523;28;20205;-70
2022/10/14 08:53:21;;;;;;;20.27;13.90;;;17.50;99.90;;;;;;5026830;28;20284;-70
2022/10/14 08:55:53;;;;;;;22.98;13.63;;;17.60;99.90;;;;;;5028464;28;20239;-69
2022/10/14 08:58:42;;;;;;;19.65;14.32;;;17.20;99.90;;;;;;5033941;28;20215;-70
2022/10/14 09:01:30;;;;;;;23.60;14.82;;;17.10;99.90;;;;;;5028137;28;20267;-69
2022/10/14 09:03:59;;;;;;;21.40;14.43;;;18.00;99.90;;;;;;5037572;28;20298;-69
2022/10/14 09:06:29;;;;;;;22.33;14.43;;;18.70;99.90;;;;;;5036112;28;20164;-69
2022/10/14 09:09:07;;;;;;;19.63;14.30;;;19.10;99.90;;;;;;5027086;28;20656;-69
2022/10/14 09:11:40;;;;;;;23.13;14.15;;;19.50;99.90;;;;;;5023088;28;20251;-70
2022/10/14 09:14:08;;;;;;;20.20;13.38;;;19.20;99.90;;;;;;5037566;28;20696;-69
2022/10/14 09:16:37;;;;;;;19.98;13.95;;;19.20;99.90;;;;;;5031041;28;20228;-70
2022/10/14 09:19:21;;;;;;;19.77;12.27;;;19.20;99.90;;;;;;5025209;28;20205;-69
2022/10/14 09:21:53;;;;;;;21.15;12.48;;;19.10;99.90;;;;;;5034111;28;20227;-70
2022/10/14 09:24:31;;;;;;;21.23;12.55;;;18.90;99.90;;;;;;5032828;28;20187;-70
2022/10/14 09:27:02;;;;;;;18.30;12.68;;;18.70;99.90;;;;;;5026285;28;20181;-69
2022/10/14 09:29:58;;;;;;;16.92;13.07;;;18.60;99.90;;;;;;5027370;28;20246;-69
2022/10/14 09:32:34;;;;;;;19.65;12.50;;;18.10;99.90;;;;;;5027347;28;20203;-70
2022/10/14 09:35:00;;;;;;;19.95;13.18;;;18.30;99.90;;;;;;5031249;28;20221;-69
2022/10/14 09:37:33;;;;;;;23.52;12.77;;;18.80;99.90;;;;;;5028224;28;20225;-69
2022/10/14 09:40:12;;;;;;;18.38;12.90;;;19.10;99.90;;;;;;5033627;28;20219;-69
2022/10/14 09:43:12;;;;;;;21.58;13.30;;;18.60;99.90;;;;;;5030581;28;20215;-70
2022/10/14 09:45:58;;;;;;;24.23;13.88;;;18.10;99.90;;;;;;5021597;28;20219;-70
2022/10/14 09:48:37;;;;;;;18.80;13.65;;;18.40;99.90;;;;;;5031099;28;20177;-69
2022/10/14 09:51:18;;;;;;;19.42;13.15;;;18.40;99.90;;;;;;5030590;28;20181;-70
2022/10/14 09:53:47;;;;;;;19.90;13.50;;;18.40;99.90;;;;;;5023459;28;20286;-70
2022/10/14 09:56:14;;;;;;;19.48;12.52;;;18.50;99.90;;;;;;5031265;28;20249;-69
2022/10/14 09:58:49;;;;;;;23.63;12.55;;;18.50;99.90;;;;;;5028072;28;20634;-70
2022/10/14 10:01:17;;;;;;;20.75;12.88;;;18.50;99.90;;;;;;5026777;28;20310;-69
2022/10/14 10:03:44;;;;;;;22.02;12.68;;;18.60;99.90;;;;;;5035006;28;20267;-69
2022/10/14 10:06:12;;;;;;;19.65;13.40;;;18.40;99.90;;;;;;5034625;28;20704;-70
2022/10/14 10:08:51;;;;;;;19.15;13.27;;;18.10;99.90;;;;;;5027580;28;20263;-69
2022/10/14 10:11:27;;;;;;;23.40;14.93;;;18.40;99.90;;;;;;5022907;28;20573;-70
2022/10/14 10:13:53;;;;;;;29.33;15.60;;;18.70;99.90;;;;;;5034957;28;20655;-69
2022/10/14 10:16:35;;;;;;;18.85;13.40;;;18.70;99.90;;;;;;5033233;28;20207;-70
2022/10/14 10:19:28;;;;;;;23.35;15.50;;;18.50;99.90;;;;;;5023758;28;20212;-70
2022/10/14 10:22:13;;;;;;;22.85;14.10;;;18.00;99.90;;;;;;5033269;28;20204;-69
2022/10/14 10:24:39;;;;;;;24.52;14.98;;;18.00;99.90;;;;;;5029018;28;20219;-70
2022/10/14 10:27:27;;;;;;;21.50;13.82;;;18.10;99.90;;;;;;5024754;28;20181;-69
2022/10/14 10:29:57;;;;;;;22.77;14.40;;;18.50;99.90;;;;;;5026832;28;20207;-70
2022/10/14 10:32:39;;;;;;;20.08;13.80;;;18.60;99.90;;;;;;5034990;28;20240;-70
2022/10/14 10:35:28;;;;;;;19.48;12.90;;;18.90;99.90;;;;;;5027162;28;20725;-69
2022/10/14 10:38:19;;;;;;;23.02;14.13;;;19.20;99.90;;;;;;5027389;28;20215;-70
2022/10/14 10:41:09;;;;;;;21.58;14.02;;;19.30;99.90;;;;;;5029506;28;20230;-69
2022/10/14 10:43:37;;;;;;;22.23;14.90;;;18.40;99.90;;;;;;5027668;28;20263;-69
2022/10/14 10:46:27;;;;;;;18.65;13.82;;;18.10;99.90;;;;;;5022020;28;20213;-69
2022/10/14 10:49:00;;;;;;;17.88;13.68;;;18.00;99.90;;;;;;5020044;28;20244;-69
2022/10/14 10:51:53;;;;;;;20.45;14.35;;;18.20;99.90;;;;;;5036140;28;20219;-70
2022/10/14 10:54:46;;;;;;;21.27;12.90;;;18.10;99.90;;;;;;5023195;28;20196;-69
2022/10/14 10:57:29;;;;;;;23.80;13.82;;;18.30;99.90;;;;;;5036521;28;20196;-69
2022/10/14 11:00:15;;;;;;;20.08;13.30;;;18.50;99.90;;;;;;5027885;28;20222;-69
2022/10/14 11:02:59;;;;;;;21.98;13.07;;;18.50;99.90;;;;;;5026430;28;20208;-69
2022/10/14 11:05:44;;;;;;;19.92;13.95;;;18.50;99.90;;;;;;5028191;28;20724;-69
2022/10/14 11:14:39;;;;;;;21.20;13.45;;;18.40;99.90;;;;;;5036814;28;20210;-69
2022/10/14 11:17:21;;;;;;;19.92;13.30;;;18.60;99.90;;;;;;5028614;28;20237;-69
2022/10/14 11:20:14;;;;;;;17.65;13.85;;;18.70;99.90;;;;;;5020978;28;20205;-69
2022/10/14 11:22:58;;;;;;;18.13;12.95;;;18.50;99.90;;;;;;5034707;28;20212;-70
2022/10/14 11:25:39;;;;;;;19.67;13.13;;;18.50;99.90;;;;;;5038961;28;20219;-69
2022/10/14 11:28:38;;;;;;;20.05;13.07;;;18.40;99.90;;;;;;5022956;28;20212;-69
2022/10/14 11:31:34;;;;;;;19.38;12.60;;;18.80;99.90;;;;;;5037668;28;20266;-69
2022/10/14 11:34:30;;;;;;;17.70;12.88;;;19.10;99.90;;;;;;5033139;28;20224;-69
2022/10/14 11:37:06;;;;;;;21.20;12.60;;;19.50;99.90;;;;;;5024598;28;20263;-69
2022/10/14 11:39:59;;;;;;;20.02;13.30;;;19.60;99.90;;;;;;5038447;28;20207;-70
2022/10/14 11:42:39;;;;;;;20.30;13.25;;;19.40;99.90;;;;;;5030778;28;20239;-69
2022/10/14 11:45:45;;;;;;;17.13;11.88;;;19.00;99.90;;;;;;5027687;28;20193;-69
2022/10/14 11:48:33;;;;;;;17.73;11.90;;;18.90;99.90;;;;;;5040586;28;20215;-70
2022/10/14 11:51:18;;;;;;;15.95;11.88;;;18.80;99.90;;;;;;5033268;28;20192;-69
2022/10/14 11:54:04;;;;;;;22.05;12.57;;;18.60;99.90;;;;;;5029286;28;20203;-70
2022/10/14 11:56:55;;;;;;;16.67;11.98;;;18.40;99.90;;;;;;5052625;22;20219;-70
2022/10/14 11:59:35;;;;;;;15.52;11.32;;;18.80;99.90;;;;;;5017777;28;20239;-71
2022/10/14 12:02:12;;;;;;;15.90;11.73;;;19.10;99.90;;;;;;5016210;28;20213;-69
2022/10/14 12:04:42;;;;;;;15.98;10.98;;;19.20;99.90;;;;;;5020218;28;20300;-71
2022/10/14 12:07:16;;;;;;;15.05;11.25;;;19.10;99.90;;;;;;5020602;28;20205;-71
2022/10/14 12:09:54;;;;;;;18.35;11.30;;;19.10;99.90;;;;;;5030737;28;20756;-70
2022/10/14 12:12:21;;;;;;;20.55;11.93;;;19.10;99.90;;;;;;5016972;28;20180;-71
2022/10/14 12:14:54;;;;;;;17.58;11.85;;;18.80;99.90;;;;;;5022223;28;20205;-71
2022/10/14 12:17:46;;;;;;;22.42;11.10;;;18.70;99.90;;;;;;5014192;28;20219;-71
2022/10/14 12:20:48;;;;;;;20.33;12.23;;;18.50;99.90;;;;;;5015892;28;20788;-71
2022/10/14 12:23:28;;;;;;;17.13;11.15;;;18.50;99.90;;;;;;5036465;28;20682;-69
2022/10/14 12:26:09;;;;;;;18.50;12.23;;;18.40;99.90;;;;;;5016913;28;20213;-71
2022/10/14 12:28:36;;;;;;;17.48;12.65;;;18.50;99.90;;;;;;5011570;28;20734;-71
2022/10/14 12:31:40;;;;;;;17.92;11.85;;;18.50;99.90;;;;;;5022984;28;20212;-70
2022/10/14 12:34:14;;;;;;;17.55;11.32;;;18.40;99.90;;;;;;4990596;28;20336;-71
2022/10/14 12:36:49;;;;;;;15.00;11.30;;;18.40;99.90;;;;;;4990709;28;20300;-71
2022/10/14 12:39:17;;;;;;;13.68;10.13;;;18.20;99.90;;;;;;5009864;28;20227;-71
2022/10/14 12:41:49;;;;;;;16.20;11.48;;;17.80;99.90;;;;;;5017225;28;20177;-68
2022/10/14 12:44:17;;;;;;;16.50;11.80;;;17.90;99.90;;;;;;5015836;28;20231;-69
2022/10/14 12:46:48;;;;;;;17.50;11.50;;;18.00;99.90;;;;;;5031921;28;20221;-70
2022/10/14 12:49:28;;;;;;;14.85;10.77;;;18.00;99.90;;;;;;5020344;28;20682;-71
2022/10/14 12:51:56;;;;;;;16.88;11.10;;;18.20;99.90;;;;;;5016102;28;20209;-70
2022/10/14 12:54:23;;;;;;;14.57;10.35;;;18.00;99.90;;;;;;5013547;28;20202;-70
2022/10/14 12:56:59;;;;;;;13.07;9.95;;;18.00;99.90;;;;;;5034824;28;20213;-71